Time;durP1;ratioP1;P1;durP2;ratioP2;P2;SDS_P1;SDS_P2;PMS_P1;PMS_P2;Temp;Humidity;BMP_temperature;BMP_pressure;BME280_temperature;BME280_humidity;BME280_pressure;Samples;Min_cycle;Max_cycle;Signal;HPM_P1;HPM_P2
2023/08/19 00:06:37;;;;;;;15.18;9.50;;;;;;;25.27;100.00;100557.72;20879371;28;20397;-72
2023/08/19 00:16:43;;;;;;;16.52;9.68;;;;;;;25.30;100.00;100559.41;20891031;28;20144;-72
2023/08/19 00:27:06;;;;;;;16.33;9.40;;;;;;;25.10;100.00;100559.47;20893382;28;20049;-72
2023/08/19 00:37:32;;;;;;;15.00;9.60;;;;;;;25.09;100.00;100565.81;20896802;28;20075;-72
2023/08/19 00:47:55;;;;;;;13.07;9.15;;;;;;;25.21;100.00;100559.81;20935341;28;20048;-72
2023/08/19 00:58:19;;;;;;;20.30;10.05;;;;;;;25.23;100.00;100558.81;20929033;28;20444;-72
2023/08/19 01:08:49;;;;;;;16.88;10.73;;;;;;;25.21;100.00;100552.59;20897580;28;20110;-73
2023/08/19 01:19:20;;;;;;;14.18;10.15;;;;;;;25.05;100.00;100545.31;20894083;28;20104;-72
2023/08/19 01:30:23;;;;;;;22.75;10.93;;;;;;;24.89;100.00;100542.41;21047335;27;20391;-72
2023/08/19 01:40:46;;;;;;;19.27;10.85;;;;;;;24.90;100.00;100544.22;21029060;28;20053;-72
2023/08/19 01:51:11;;;;;;;16.73;9.82;;;;;;;24.81;100.00;100544.63;21018233;28;20060;-72
2023/08/19 02:01:33;;;;;;;16.02;10.20;;;;;;;24.75;100.00;100563.78;21013945;28;20052;-72
2023/08/19 02:11:57;;;;;;;17.58;10.40;;;;;;;24.73;100.00;100560.28;21014177;28;20071;-72
2023/08/19 02:22:21;;;;;;;16.13;10.88;;;;;;;24.60;100.00;100555.47;21023000;28;20048;-72
2023/08/19 02:32:25;;;;;;;18.13;11.75;;;;;;;24.67;100.00;100552.47;21036592;28;20032;-72
2023/08/19 02:42:47;;;;;;;15.45;10.65;;;;;;;24.58;100.00;100546.53;20895043;28;20811;-72
2023/08/19 02:53:12;;;;;;;16.38;11.07;;;;;;;24.44;100.00;100548.09;20929349;28;20082;-72
2023/08/19 03:03:35;;;;;;;15.63;11.13;;;;;;;24.29;100.00;100546.97;20956575;28;20048;-72
2023/08/19 03:13:59;;;;;;;18.67;10.73;;;;;;;24.20;100.00;100545.56;20953653;28;20045;-72
2023/08/19 03:24:21;;;;;;;15.40;10.52;;;;;;;24.16;100.00;100549.28;20944125;28;20059;-72
2023/08/19 03:34:45;;;;;;;14.60;9.82;;;;;;;24.09;100.00;100555.06;20974707;28;20072;-72
2023/08/19 03:45:09;;;;;;;15.88;9.80;;;;;;;24.11;100.00;100559.41;20959759;28;20131;-72
2023/08/19 03:55:33;;;;;;;14.70;9.38;;;;;;;24.23;100.00;100563.44;20954337;28;20059;-71
2023/08/19 04:05:55;;;;;;;12.55;8.63;;;;;;;24.39;100.00;100569.03;20949246;28;20060;-72
2023/08/19 04:16:22;;;;;;;15.85;8.40;;;;;;;24.73;100.00;100579.19;20950880;28;20049;-72
2023/08/19 04:26:45;;;;;;;12.60;7.22;;;;;;;25.08;100.00;100586.56;20949372;28;20134;-72
2023/08/19 04:36:49;;;;;;;12.18;7.03;;;;;;;25.22;100.00;100575.97;20980275;28;20044;-72
2023/08/19 04:47:12;;;;;;;12.65;6.45;;;;;;;25.67;100.00;100586.41;20979197;28;20056;-72
2023/08/19 04:57:39;;;;;;;13.48;5.93;;;;;;;26.31;100.00;100583.19;20941770;28;20040;-72
2023/08/19 05:08:02;;;;;;;10.52;5.63;;;;;;;27.24;100.00;100584.41;20959794;28;20059;-70
2023/08/19 05:18:27;;;;;;;9.98;4.75;;;;;;;28.17;100.00;100595.34;20945349;28;20036;-70
2023/08/19 05:28:49;;;;;;;12.00;4.82;;;;;;;29.14;100.00;100599.31;20944848;28;20068;-71
2023/08/19 05:39:14;;;;;;;10.23;4.57;;;;;;;30.25;100.00;100595.53;20949169;28;20291;-71
2023/08/19 05:49:36;;;;;;;9.00;3.83;;;;;;;31.24;100.00;100594.81;20958056;28;20102;-71
2023/08/19 06:00:00;;;;;;;8.30;3.72;;;;;;;32.04;100.00;100596.09;20984742;28;20409;-71
2023/08/19 06:10:23;;;;;;;11.25;4.00;;;;;;;32.76;100.00;100596.88;20943992;28;20381;-71
2023/08/19 06:20:47;;;;;;;14.13;4.43;;;;;;;33.11;89.58;100601.41;20968877;28;20098;-73
2023/08/19 06:31:10;;;;;;;13.77;4.73;;;;;;;33.58;87.52;100594.81;20953607;28;20083;-72
2023/08/19 06:41:39;;;;;;;11.20;3.80;;;;;;;33.79;79.33;100601.28;20971460;28;20037;-71
2023/08/19 06:51:43;;;;;;;9.77;3.85;;;;;;;34.40;73.47;100596.91;20939520;28;20072;-72
2023/08/19 07:02:09;;;;;;;6.78;3.05;;;;;;;34.39;65.35;100603.44;20957627;28;20052;-71
2023/08/19 07:12:32;;;;;;;9.52;3.80;;;;;;;34.89;59.98;100609.13;20975505;28;20045;-72
2023/08/19 07:22:58;;;;;;;11.23;3.43;;;;;;;35.28;56.46;100614.84;20955981;28;20049;-74
2023/08/19 07:33:21;;;;;;;6.88;3.95;;;;;;;35.87;53.09;100618.50;20972219;28;20040;-74
2023/08/19 07:43:25;;;;;;;9.63;3.10;;;;;;;36.12;49.88;100614.34;20955846;28;20052;-72
2023/08/19 07:53:27;;;;;;;7.85;3.38;;;;;;;36.31;47.56;100622.63;20978401;28;20541;-70
2023/08/19 08:03:51;;;;;;;10.88;3.30;;;;;;;36.52;45.87;100633.47;20949083;28;20080;-73
2023/08/19 08:13:54;;;;;;;12.00;3.33;;;;;;;36.80;45.12;100636.38;20943147;28;20109;-74
2023/08/19 08:24:18;;;;;;;5.90;3.28;;;;;;;36.98;45.55;100645.59;20957315;28;20063;-71
2023/08/19 08:34:41;;;;;;;6.80;3.38;;;;;;;37.13;45.30;100654.28;20953152;28;20564;-73
2023/08/19 08:44:47;;;;;;;7.80;3.05;;;;;;;37.23;45.09;100655.13;20975382;28;20501;-73
2023/08/19 08:55:11;;;;;;;10.35;3.40;;;;;;;37.52;44.89;100636.59;20952205;28;20504;-72
2023/08/19 09:05:37;;;;;;;8.97;3.07;;;;;;;37.71;43.66;100639.28;20932738;28;20060;-72
2023/08/19 09:16:00;;;;;;;7.88;3.40;;;;;;;37.68;44.44;100622.19;20936529;28;20301;-74
2023/08/19 09:26:24;;;;;;;6.37;3.20;;;;;;;38.27;43.70;100616.09;20924295;28;20130;-73
2023/08/19 09:36:26;;;;;;;5.72;3.63;;;;;;;38.56;42.81;100630.56;20950830;28;20762;-73
2023/08/19 09:46:52;;;;;;;14.73;3.83;;;;;;;38.71;42.05;100625.34;20937828;28;20045;-73
2023/08/19 09:57:16;;;;;;;11.60;3.47;;;;;;;38.93;43.08;100607.38;20976853;28;20052;-73
2023/08/19 10:07:45;;;;;;;6.68;3.30;;;;;;;38.91;43.32;100609.41;20972106;28;20047;-72
2023/08/19 10:18:13;;;;;;;10.70;3.72;;;;;;;38.97;43.44;100606.91;20942279;28;20064;-72
2023/08/19 10:28:37;;;;;;;8.07;3.85;;;;;;;38.61;44.46;100621.78;20984299;28;20060;-72
2023/08/19 10:39:01;;;;;;;9.80;3.65;;;;;;;38.54;44.74;100623.44;20970762;28;20056;-73
2023/08/19 10:49:34;;;;;;;10.75;4.32;;;;;;;38.20;45.77;100624.16;20965997;28;21574;-73
2023/08/19 10:59:58;;;;;;;9.57;4.13;;;;;;;37.90;47.39;100632.78;20944804;28;20048;-72
2023/08/19 11:10:23;;;;;;;10.45;5.03;;;;;;;37.48;49.33;100638.75;20955579;28;20049;-73
2023/08/19 11:20:45;;;;;;;11.00;5.00;;;;;;;37.16;52.77;100629.19;20956091;28;20175;-72
2023/08/19 11:31:03;;;;;;;14.25;5.10;;;;;;;37.16;54.72;100638.31;20981137;28;20119;-72
2023/08/19 11:41:16;;;;;;;12.82;4.70;;;;;;;36.90;56.39;100643.59;20960372;28;20064;-72
2023/08/19 11:51:43;;;;;;;10.73;4.65;;;;;;;37.29;55.60;100649.88;20964327;28;20087;-73
2023/08/19 12:02:08;;;;;;;11.07;4.10;;;;;;;37.48;53.25;100652.53;20995008;28;20607;-72
2023/08/19 12:12:32;;;;;;;13.65;4.03;;;;;;;37.40;50.09;100651.59;20963825;28;20072;-70
2023/08/19 12:22:54;;;;;;;13.68;3.88;;;;;;;37.48;48.75;100651.72;20931529;28;20076;-71
2023/08/19 12:33:19;;;;;;;10.00;3.88;;;;;;;37.37;47.45;100643.63;20968500;28;20052;-72
2023/08/19 12:43:22;;;;;;;9.73;4.35;;;;;;;37.09;46.63;100634.41;20949767;28;20036;-72
2023/08/19 12:53:46;;;;;;;11.57;4.35;;;;;;;36.81;47.54;100632.63;20964385;28;20078;-72
2023/08/19 13:04:09;;;;;;;12.63;4.40;;;;;;;36.59;46.86;100639.25;20950029;28;20049;-72
2023/08/19 13:14:33;;;;;;;7.75;3.65;;;;;;;36.36;47.03;100632.34;20955381;28;20045;-71
2023/08/19 13:24:55;;;;;;;16.38;4.55;;;;;;;36.00;51.72;100626.50;20950756;28;20094;-71
2023/08/19 13:35:16;;;;;;;13.32;4.85;;;;;;;35.66;55.97;100622.34;20949652;28;20064;-72
2023/08/19 13:45:38;;;;;;;13.77;5.22;;;;;;;35.28;59.26;100631.31;20936367;28;20048;-71
2023/08/19 13:56:03;;;;;;;11.98;4.50;;;;;;;35.10;61.18;100626.44;20954922;28;20049;-72
2023/08/19 14:06:11;;;;;;;10.10;4.10;;;;;;;34.29;72.92;100623.53;20936931;28;20079;-73
2023/08/19 14:16:35;;;;;;;10.32;4.22;;;;;;;34.44;70.94;100627.72;20950451;28;20060;-73
2023/08/19 14:26:58;;;;;;;12.50;3.90;;;;;;;34.55;68.25;100624.91;20945192;28;20162;-73
2023/08/19 14:37:22;;;;;;;12.57;3.85;;;;;;;34.53;67.38;100623.31;20963588;28;20053;-73
2023/08/19 14:47:45;;;;;;;10.75;3.63;;;;;;;34.38;72.34;100623.63;20959278;28;20052;-73
2023/08/19 14:58:08;;;;;;;11.65;3.60;;;;;;;33.98;80.89;100622.50;20971268;28;20048;-73
2023/08/19 15:08:32;;;;;;;10.85;3.60;;;;;;;33.97;79.84;100624.38;20949010;28;20059;-73
2023/08/19 15:18:56;;;;;;;13.18;4.50;;;;;;;33.50;79.60;100635.63;20966985;28;20508;-73
2023/08/19 15:29:19;;;;;;;13.90;4.75;;;;;;;33.19;81.82;100627.19;20957347;28;20060;-73
2023/08/19 15:39:43;;;;;;;13.85;4.53;;;;;;;32.72;84.43;100622.75;20973874;28;20049;-74
2023/08/19 15:50:07;;;;;;;10.20;4.47;;;;;;;32.42;87.00;100627.88;20946760;28;20048;-73
2023/08/19 16:00:31;;;;;;;16.88;4.40;;;;;;;32.08;91.56;100624.09;20942314;28;20370;-73
2023/08/19 16:11:01;;;;;;;18.00;4.65;;;;;;;31.96;94.57;100625.91;20953807;28;20050;-73
2023/08/19 16:21:25;;;;;;;13.75;5.05;;;;;;;31.63;97.63;100634.75;20967078;28;20416;-73
2023/08/19 16:31:48;;;;;;;14.02;4.78;;;;;;;31.39;98.42;100628.31;20991793;28;20048;-73
2023/08/19 16:42:13;;;;;;;17.95;5.60;;;;;;;31.18;99.33;100627.13;20956292;28;20040;-73
2023/08/19 16:52:35;;;;;;;14.15;5.50;;;;;;;30.98;100.00;100625.84;20986567;28;20045;-73
2023/08/19 17:02:59;;;;;;;11.27;5.38;;;;;;;30.74;100.00;100627.56;20999834;28;20055;-73
2023/08/19 17:13:22;;;;;;;16.33;5.85;;;;;;;30.58;100.00;100626.91;20965932;28;20057;-73
2023/08/19 17:23:46;;;;;;;16.77;6.30;;;;;;;30.34;100.00;100630.31;20954606;28;20044;-73
2023/08/19 17:34:09;;;;;;;14.38;5.25;;;;;;;30.16;100.00;100636.13;20943177;28;20052;-74
2023/08/19 17:44:42;;;;;;;17.75;5.80;;;;;;;29.97;100.00;100636.50;20934029;28;20049;-73
2023/08/19 17:55:06;;;;;;;13.63;6.00;;;;;;;29.75;100.00;100656.06;20954949;28;20044;-72
2023/08/19 18:05:30;;;;;;;15.55;6.03;;;;;;;29.57;100.00;100660.00;20958798;28;20495;-72
2023/08/19 18:15:53;;;;;;;17.90;6.35;;;;;;;29.42;100.00;100671.88;20991603;28;20067;-74
2023/08/19 18:26:17;;;;;;;16.23;5.28;;;;;;;29.19;100.00;100660.59;20977609;28;20049;-72
2023/08/19 18:36:40;;;;;;;13.00;5.00;;;;;;;29.00;100.00;100672.72;20981886;28;20052;-73
2023/08/19 18:47:05;;;;;;;17.60;6.55;;;;;;;28.85;100.00;100685.41;20966459;28;20052;-73
2023/08/19 18:57:20;;;;;;;14.23;5.13;;;;;;;28.63;100.00;100683.06;20974712;28;20064;-72
2023/08/19 19:07:44;;;;;;;15.32;6.30;;;;;;;28.51;100.00;100692.84;20996596;28;20146;-73
2023/08/19 19:18:08;;;;;;;12.38;5.53;;;;;;;28.33;100.00;100690.34;20958920;28;20646;-73
2023/08/19 19:28:32;;;;;;;16.08;6.15;;;;;;;28.23;100.00;100689.13;20953391;28;20489;-73
2023/08/19 19:38:55;;;;;;;20.27;6.97;;;;;;;28.03;100.00;100696.56;20944329;28;20048;-73
2023/08/19 19:49:20;;;;;;;15.80;6.03;;;;;;;27.93;100.00;100692.66;20983741;28;20059;-74
2023/08/19 19:59:42;;;;;;;13.73;5.57;;;;;;;27.79;100.00;100683.53;20951895;28;20494;-74
2023/08/19 20:10:07;;;;;;;17.83;5.40;;;;;;;27.70;100.00;100676.78;20933947;28;20473;-75
2023/08/19 20:20:29;;;;;;;11.85;5.88;;;;;;;27.57;100.00;100668.47;20964077;28;20049;-74
2023/08/19 20:30:54;;;;;;;18.80;5.93;;;;;;;27.51;100.00;100668.78;20967316;28;20049;-75
2023/08/19 20:41:16;;;;;;;13.75;5.78;;;;;;;27.45;100.00;100669.13;20982835;28;20091;-75
2023/08/19 20:51:41;;;;;;;14.93;6.28;;;;;;;27.31;100.00;100664.47;20995689;28;20709;-74
2023/08/19 21:02:03;;;;;;;19.05;6.50;;;;;;;27.12;100.00;100654.72;20955554;28;20072;-74
2023/08/19 21:12:27;;;;;;;15.95;6.13;;;;;;;26.96;100.00;100658.28;20920206;28;20044;-73
2023/08/19 21:22:50;;;;;;;16.42;6.63;;;;;;;26.80;100.00;100651.00;20965296;28;20754;-72
2023/08/19 21:33:14;;;;;;;15.77;5.78;;;;;;;26.76;100.00;100653.00;20985251;28;20527;-71
2023/08/19 21:43:37;;;;;;;14.38;6.43;;;;;;;26.77;100.00;100652.06;20973205;28;20056;-72
2023/08/19 21:54:01;;;;;;;19.00;6.75;;;;;;;26.35;100.00;100646.16;20967270;28;20336;-72
2023/08/19 22:04:24;;;;;;;17.05;6.28;;;;;;;26.39;100.00;100648.63;20982738;28;20504;-72
2023/08/19 22:14:47;;;;;;;14.27;6.40;;;;;;;26.32;100.00;100666.13;20977201;28;20053;-75
2023/08/19 22:25:10;;;;;;;13.77;6.97;;;;;;;26.22;100.00;100662.13;20973399;28;20428;-75
2023/08/19 22:35:35;;;;;;;11.95;5.93;;;;;;;26.23;100.00;100665.69;20973766;28;20057;-75
2023/08/19 22:45:57;;;;;;;13.70;6.05;;;;;;;26.30;100.00;100667.19;20975052;28;20049;-74
2023/08/19 22:56:22;;;;;;;14.40;6.45;;;;;;;26.34;100.00;100666.06;20970957;28;20055;-72
2023/08/19 23:06:44;;;;;;;16.20;6.60;;;;;;;26.43;100.00;100666.47;20977547;28;20078;-75
2023/08/19 23:17:08;;;;;;;12.85;6.93;;;;;;;26.47;100.00;100659.94;20984494;28;20086;-74
2023/08/19 23:27:31;;;;;;;13.57;5.82;;;;;;;26.43;100.00;100647.53;20967195;28;20053;-75
2023/08/19 23:37:55;;;;;;;11.48;6.07;;;;;;;26.33;100.00;100638.09;20954735;28;20155;-74
2023/08/19 23:48:18;;;;;;;13.70;6.05;;;;;;;26.20;100.00;100631.53;20965762;28;20072;-74
2023/08/19 23:58:24;;;;;;;15.27;6.95;;;;;;;26.06;100.00;100623.22;20964280;28;20095;-74
